sensor_id;sensor_type;location;lat;lon;timestamp;P1;durP1;ratioP1;P2;durP2;ratioP2
42866;SDS011;39461;40.948;73.006;2023-09-19T00:02:27;26.65;;;7.88;;
42866;SDS011;39461;40.948;73.006;2023-09-19T00:05:03;32.92;;;8.25;;
42866;SDS011;39461;40.948;73.006;2023-09-19T00:07:30;27.98;;;7.75;;
42866;SDS011;39461;40.948;73.006;2023-09-19T00:10:03;23.73;;;7.55;;
42866;SDS011;39461;40.948;73.006;2023-09-19T00:12:42;23.52;;;7.22;;
42866;SDS011;39461;40.948;73.006;2023-09-19T00:15:17;24.80;;;7.47;;
42866;SDS011;39461;40.948;73.006;2023-09-19T00:17:53;22.02;;;7.25;;
42866;SDS011;39461;40.948;73.006;2023-09-19T00:20:26;20.83;;;7.70;;
42866;SDS011;39461;40.948;73.006;2023-09-19T00:23:05;24.88;;;7.55;;
42866;SDS011;39461;40.948;73.006;2023-09-19T00:25:42;24.60;;;6.85;;
42866;SDS011;39461;40.948;73.006;2023-09-19T00:28:15;29.77;;;8.02;;
42866;SDS011;39461;40.948;73.006;2023-09-19T00:30:49;27.90;;;7.82;;
42866;SDS011;39461;40.948;73.006;2023-09-19T00:33:22;32.55;;;7.82;;
42866;SDS011;39461;40.948;73.006;2023-09-19T00:35:57;27.63;;;8.73;;
42866;SDS011;39461;40.948;73.006;2023-09-19T00:38:30;18.40;;;7.30;;
42866;SDS011;39461;40.948;73.006;2023-09-19T00:41:04;23.45;;;7.35;;
42866;SDS011;39461;40.948;73.006;2023-09-19T00:43:39;28.00;;;8.20;;
42866;SDS011;39461;40.948;73.006;2023-09-19T00:46:12;20.80;;;7.28;;
42866;SDS011;39461;40.948;73.006;2023-09-19T00:48:51;25.42;;;8.45;;
42866;SDS011;39461;40.948;73.006;2023-09-19T00:51:25;23.75;;;8.63;;
42866;SDS011;39461;40.948;73.006;2023-09-19T00:53:53;28.73;;;7.63;;
42866;SDS011;39461;40.948;73.006;2023-09-19T00:56:27;26.77;;;7.85;;
42866;SDS011;39461;40.948;73.006;2023-09-19T00:59:00;32.88;;;8.18;;
42866;SDS011;39461;40.948;73.006;2023-09-19T01:01:33;28.50;;;7.43;;
42866;SDS011;39461;40.948;73.006;2023-09-19T01:04:06;26.90;;;8.00;;
42866;SDS011;39461;40.948;73.006;2023-09-19T01:06:33;37.75;;;7.38;;
42866;SDS011;39461;40.948;73.006;2023-09-19T01:09:10;30.38;;;7.90;;
42866;SDS011;39461;40.948;73.006;2023-09-19T01:11:46;30.33;;;9.07;;
42866;SDS011;39461;40.948;73.006;2023-09-19T01:14:27;38.03;;;8.73;;
42866;SDS011;39461;40.948;73.006;2023-09-19T01:17:08;35.97;;;9.07;;
42866;SDS011;39461;40.948;73.006;2023-09-19T01:22:33;31.17;;;9.30;;
42866;SDS011;39461;40.948;73.006;2023-09-19T01:28:06;31.70;;;8.77;;
42866;SDS011;39461;40.948;73.006;2023-09-19T01:30:43;42.10;;;10.05;;
42866;SDS011;39461;40.948;73.006;2023-09-19T01:33:16;37.28;;;9.85;;
42866;SDS011;39461;40.948;73.006;2023-09-19T01:35:50;56.50;;;9.90;;
42866;SDS011;39461;40.948;73.006;2023-09-19T01:38:24;53.65;;;10.73;;
42866;SDS011;39461;40.948;73.006;2023-09-19T01:41:03;32.17;;;10.07;;
42866;SDS011;39461;40.948;73.006;2023-09-19T01:43:41;24.90;;;9.32;;
42866;SDS011;39461;40.948;73.006;2023-09-19T01:46:25;48.33;;;10.18;;
42866;SDS011;39461;40.948;73.006;2023-09-19T01:54:50;51.75;;;9.90;;
42866;SDS011;39461;40.948;73.006;2023-09-19T01:57:28;48.65;;;8.98;;
42866;SDS011;39461;40.948;73.006;2023-09-19T02:00:07;46.72;;;10.05;;
42866;SDS011;39461;40.948;73.006;2023-09-19T02:02:46;40.35;;;11.13;;
42866;SDS011;39461;40.948;73.006;2023-09-19T02:05:23;38.85;;;9.38;;
42866;SDS011;39461;40.948;73.006;2023-09-19T02:07:57;42.40;;;10.50;;
42866;SDS011;39461;40.948;73.006;2023-09-19T02:10:32;34.35;;;9.20;;
42866;SDS011;39461;40.948;73.006;2023-09-19T02:13:08;34.13;;;9.23;;
42866;SDS011;39461;40.948;73.006;2023-09-19T02:15:43;41.60;;;9.23;;
42866;SDS011;39461;40.948;73.006;2023-09-19T02:18:18;29.83;;;8.73;;
42866;SDS011;39461;40.948;73.006;2023-09-19T02:20:53;48.70;;;10.02;;
42866;SDS011;39461;40.948;73.006;2023-09-19T02:23:31;40.40;;;9.20;;
42866;SDS011;39461;40.948;73.006;2023-09-19T02:26:06;33.42;;;8.10;;
42866;SDS011;39461;40.948;73.006;2023-09-19T02:28:46;37.95;;;7.97;;
42866;SDS011;39461;40.948;73.006;2023-09-19T02:31:19;41.70;;;9.80;;
42866;SDS011;39461;40.948;73.006;2023-09-19T02:33:52;28.20;;;7.72;;
42866;SDS011;39461;40.948;73.006;2023-09-19T02:36:25;32.63;;;8.05;;
42866;SDS011;39461;40.948;73.006;2023-09-19T02:39:01;31.70;;;11.35;;
42866;SDS011;39461;40.948;73.006;2023-09-19T02:41:36;44.05;;;10.40;;
42866;SDS011;39461;40.948;73.006;2023-09-19T02:44:09;44.88;;;11.15;;
42866;SDS011;39461;40.948;73.006;2023-09-19T02:46:47;28.08;;;9.55;;
42866;SDS011;39461;40.948;73.006;2023-09-19T02:49:23;41.30;;;11.35;;
42866;SDS011;39461;40.948;73.006;2023-09-19T02:51:58;28.85;;;9.50;;
42866;SDS011;39461;40.948;73.006;2023-09-19T02:54:32;31.70;;;9.35;;
42866;SDS011;39461;40.948;73.006;2023-09-19T02:57:05;33.88;;;9.98;;
42866;SDS011;39461;40.948;73.006;2023-09-19T02:59:38;22.67;;;8.55;;
42866;SDS011;39461;40.948;73.006;2023-09-19T03:02:14;34.85;;;9.30;;
42866;SDS011;39461;40.948;73.006;2023-09-19T03:04:48;42.45;;;9.63;;
42866;SDS011;39461;40.948;73.006;2023-09-19T03:07:15;34.03;;;10.35;;
42866;SDS011;39461;40.948;73.006;2023-09-19T03:09:51;31.25;;;9.50;;
42866;SDS011;39461;40.948;73.006;2023-09-19T03:12:27;22.55;;;9.02;;
42866;SDS011;39461;40.948;73.006;2023-09-19T03:15:03;21.67;;;8.90;;
42866;SDS011;39461;40.948;73.006;2023-09-19T03:17:43;31.25;;;9.45;;
42866;SDS011;39461;40.948;73.006;2023-09-19T03:20:18;26.08;;;9.73;;
42866;SDS011;39461;40.948;73.006;2023-09-19T03:22:54;30.08;;;9.07;;
42866;SDS011;39461;40.948;73.006;2023-09-19T03:25:36;27.65;;;8.43;;
42866;SDS011;39461;40.948;73.006;2023-09-19T03:28:12;23.75;;;9.00;;
42866;SDS011;39461;40.948;73.006;2023-09-19T03:30:58;24.65;;;8.52;;
42866;SDS011;39461;40.948;73.006;2023-09-19T03:33:34;27.05;;;9.18;;
42866;SDS011;39461;40.948;73.006;2023-09-19T03:36:09;25.90;;;8.77;;
42866;SDS011;39461;40.948;73.006;2023-09-19T03:38:45;21.83;;;7.88;;
42866;SDS011;39461;40.948;73.006;2023-09-19T03:41:20;39.50;;;10.25;;
42866;SDS011;39461;40.948;73.006;2023-09-19T03:43:56;42.10;;;9.52;;
42866;SDS011;39461;40.948;73.006;2023-09-19T03:46:31;28.33;;;8.95;;
42866;SDS011;39461;40.948;73.006;2023-09-19T03:49:09;29.10;;;8.18;;
42866;SDS011;39461;40.948;73.006;2023-09-19T03:51:44;34.35;;;9.02;;
42866;SDS011;39461;40.948;73.006;2023-09-19T03:54:17;38.25;;;9.13;;
42866;SDS011;39461;40.948;73.006;2023-09-19T03:56:51;39.17;;;9.70;;
42866;SDS011;39461;40.948;73.006;2023-09-19T03:59:26;29.88;;;8.88;;
42866;SDS011;39461;40.948;73.006;2023-09-19T04:02:02;36.88;;;10.25;;
42866;SDS011;39461;40.948;73.006;2023-09-19T04:04:36;45.45;;;14.75;;
42866;SDS011;39461;40.948;73.006;2023-09-19T04:07:03;31.13;;;10.98;;
42866;SDS011;39461;40.948;73.006;2023-09-19T04:09:38;35.92;;;10.23;;
42866;SDS011;39461;40.948;73.006;2023-09-19T04:12:12;33.42;;;10.15;;
42866;SDS011;39461;40.948;73.006;2023-09-19T04:14:50;36.10;;;12.30;;
42866;SDS011;39461;40.948;73.006;2023-09-19T04:17:23;35.15;;;10.15;;
42866;SDS011;39461;40.948;73.006;2023-09-19T04:19:58;31.98;;;10.25;;
42866;SDS011;39461;40.948;73.006;2023-09-19T04:22:32;27.17;;;10.68;;
42866;SDS011;39461;40.948;73.006;2023-09-19T04:25:07;37.13;;;11.00;;
42866;SDS011;39461;40.948;73.006;2023-09-19T04:27:46;42.20;;;12.98;;
42866;SDS011;39461;40.948;73.006;2023-09-19T04:30:21;30.63;;;12.07;;
42866;SDS011;39461;40.948;73.006;2023-09-19T04:32:55;30.20;;;12.02;;
42866;SDS011;39461;40.948;73.006;2023-09-19T04:38:32;37.92;;;11.63;;
42866;SDS011;39461;40.948;73.006;2023-09-19T04:44:05;32.95;;;12.57;;
42866;SDS011;39461;40.948;73.006;2023-09-19T04:46:41;34.97;;;11.93;;
42866;SDS011;39461;40.948;73.006;2023-09-19T04:49:16;34.55;;;14.60;;
42866;SDS011;39461;40.948;73.006;2023-09-19T04:51:52;33.22;;;14.65;;
42866;SDS011;39461;40.948;73.006;2023-09-19T04:54:19;39.75;;;12.80;;
42866;SDS011;39461;40.948;73.006;2023-09-19T04:56:54;43.90;;;13.88;;
42866;SDS011;39461;40.948;73.006;2023-09-19T04:59:29;43.38;;;14.48;;
42866;SDS011;39461;40.948;73.006;2023-09-19T05:02:03;27.52;;;11.73;;
42866;SDS011;39461;40.948;73.006;2023-09-19T05:04:38;34.75;;;13.27;;
42866;SDS011;39461;40.948;73.006;2023-09-19T05:07:09;32.60;;;10.98;;
42866;SDS011;39461;40.948;73.006;2023-09-19T05:09:45;32.28;;;11.75;;
42866;SDS011;39461;40.948;73.006;2023-09-19T05:12:20;28.50;;;10.82;;
42866;SDS011;39461;40.948;73.006;2023-09-19T05:14:56;29.67;;;10.35;;
42866;SDS011;39461;40.948;73.006;2023-09-19T05:17:31;30.90;;;10.68;;
42866;SDS011;39461;40.948;73.006;2023-09-19T05:20:06;31.30;;;10.35;;
42866;SDS011;39461;40.948;73.006;2023-09-19T05:23:02;34.17;;;11.38;;
42866;SDS011;39461;40.948;73.006;2023-09-19T05:25:39;29.55;;;10.68;;
42866;SDS011;39461;40.948;73.006;2023-09-19T05:28:13;27.33;;;10.00;;
42866;SDS011;39461;40.948;73.006;2023-09-19T05:30:47;26.25;;;11.95;;
42866;SDS011;39461;40.948;73.006;2023-09-19T05:33:21;39.58;;;12.27;;
42866;SDS011;39461;40.948;73.006;2023-09-19T05:35:56;35.22;;;11.15;;
42866;SDS011;39461;40.948;73.006;2023-09-19T05:38:32;28.50;;;10.35;;
42866;SDS011;39461;40.948;73.006;2023-09-19T05:41:07;25.92;;;10.60;;
42866;SDS011;39461;40.948;73.006;2023-09-19T05:43:49;29.35;;;10.45;;
42866;SDS011;39461;40.948;73.006;2023-09-19T05:46:24;26.25;;;10.20;;
42866;SDS011;39461;40.948;73.006;2023-09-19T05:49:00;31.17;;;11.30;;
42866;SDS011;39461;40.948;73.006;2023-09-19T05:51:37;29.95;;;10.80;;
42866;SDS011;39461;40.948;73.006;2023-09-19T05:54:11;31.95;;;11.75;;
42866;SDS011;39461;40.948;73.006;2023-09-19T05:56:46;28.42;;;10.77;;
42866;SDS011;39461;40.948;73.006;2023-09-19T05:59:22;38.58;;;10.48;;
42866;SDS011;39461;40.948;73.006;2023-09-19T06:01:56;30.55;;;11.77;;
42866;SDS011;39461;40.948;73.006;2023-09-19T06:04:31;25.48;;;10.20;;
42866;SDS011;39461;40.948;73.006;2023-09-19T06:07:08;26.33;;;11.13;;
42866;SDS011;39461;40.948;73.006;2023-09-19T06:09:44;38.78;;;11.30;;
42866;SDS011;39461;40.948;73.006;2023-09-19T06:12:19;30.23;;;11.07;;
42866;SDS011;39461;40.948;73.006;2023-09-19T06:14:54;39.08;;;11.40;;
42866;SDS011;39461;40.948;73.006;2023-09-19T06:17:28;32.05;;;12.43;;
42866;SDS011;39461;40.948;73.006;2023-09-19T06:20:06;37.67;;;11.43;;
42866;SDS011;39461;40.948;73.006;2023-09-19T06:22:48;27.92;;;11.23;;
42866;SDS011;39461;40.948;73.006;2023-09-19T06:25:25;30.75;;;12.27;;
42866;SDS011;39461;40.948;73.006;2023-09-19T06:28:01;27.20;;;11.05;;
42866;SDS011;39461;40.948;73.006;2023-09-19T06:30:39;32.33;;;11.32;;
42866;SDS011;39461;40.948;73.006;2023-09-19T06:33:22;39.80;;;12.02;;
42866;SDS011;39461;40.948;73.006;2023-09-19T06:35:55;42.22;;;12.73;;
42866;SDS011;39461;40.948;73.006;2023-09-19T06:38:33;32.60;;;12.73;;
42866;SDS011;39461;40.948;73.006;2023-09-19T06:41:09;33.95;;;12.07;;
42866;SDS011;39461;40.948;73.006;2023-09-19T06:43:46;39.33;;;12.38;;
42866;SDS011;39461;40.948;73.006;2023-09-19T06:46:19;36.58;;;11.93;;
42866;SDS011;39461;40.948;73.006;2023-09-19T06:48:52;29.92;;;11.82;;
42866;SDS011;39461;40.948;73.006;2023-09-19T06:51:27;31.38;;;12.75;;
42866;SDS011;39461;40.948;73.006;2023-09-19T06:53:57;25.70;;;10.45;;
42866;SDS011;39461;40.948;73.006;2023-09-19T06:56:32;33.90;;;11.02;;
42866;SDS011;39461;40.948;73.006;2023-09-19T06:59:05;27.42;;;10.48;;
42866;SDS011;39461;40.948;73.006;2023-09-19T07:01:40;31.73;;;10.48;;
42866;SDS011;39461;40.948;73.006;2023-09-19T07:04:16;32.33;;;10.50;;
42866;SDS011;39461;40.948;73.006;2023-09-19T07:06:53;27.33;;;11.02;;
42866;SDS011;39461;40.948;73.006;2023-09-19T07:09:26;25.60;;;10.13;;
42866;SDS011;39461;40.948;73.006;2023-09-19T07:12:05;26.90;;;10.73;;
42866;SDS011;39461;40.948;73.006;2023-09-19T07:14:40;29.38;;;10.77;;
42866;SDS011;39461;40.948;73.006;2023-09-19T07:17:13;29.52;;;10.63;;
42866;SDS011;39461;40.948;73.006;2023-09-19T07:19:52;33.13;;;11.88;;
42866;SDS011;39461;40.948;73.006;2023-09-19T07:22:26;33.30;;;11.15;;
42866;SDS011;39461;40.948;73.006;2023-09-19T07:25:01;33.78;;;11.23;;
42866;SDS011;39461;40.948;73.006;2023-09-19T07:27:35;25.20;;;9.90;;
42866;SDS011;39461;40.948;73.006;2023-09-19T07:30:08;31.40;;;12.85;;
42866;SDS011;39461;40.948;73.006;2023-09-19T07:32:42;40.03;;;12.73;;
42866;SDS011;39461;40.948;73.006;2023-09-19T07:35:15;30.17;;;12.25;;
42866;SDS011;39461;40.948;73.006;2023-09-19T07:37:50;32.97;;;11.57;;
42866;SDS011;39461;40.948;73.006;2023-09-19T07:40:29;30.27;;;12.45;;
42866;SDS011;39461;40.948;73.006;2023-09-19T07:43:05;46.00;;;21.55;;
42866;SDS011;39461;40.948;73.006;2023-09-19T07:45:38;43.78;;;13.55;;
42866;SDS011;39461;40.948;73.006;2023-09-19T07:48:15;24.23;;;11.63;;
42866;SDS011;39461;40.948;73.006;2023-09-19T07:50:50;29.00;;;12.15;;
42866;SDS011;39461;40.948;73.006;2023-09-19T07:53:24;44.30;;;13.43;;
42866;SDS011;39461;40.948;73.006;2023-09-19T07:56:04;27.98;;;12.43;;
42866;SDS011;39461;40.948;73.006;2023-09-19T07:58:44;33.75;;;13.68;;
42866;SDS011;39461;40.948;73.006;2023-09-19T08:01:25;41.95;;;14.43;;
42866;SDS011;39461;40.948;73.006;2023-09-19T08:04:01;30.80;;;12.82;;
42866;SDS011;39461;40.948;73.006;2023-09-19T08:06:41;36.03;;;12.02;;
42866;SDS011;39461;40.948;73.006;2023-09-19T08:09:17;35.72;;;13.02;;
42866;SDS011;39461;40.948;73.006;2023-09-19T08:11:54;41.50;;;19.63;;
42866;SDS011;39461;40.948;73.006;2023-09-19T08:14:27;63.22;;;31.05;;
42866;SDS011;39461;40.948;73.006;2023-09-19T08:17:03;39.42;;;13.85;;
42866;SDS011;39461;40.948;73.006;2023-09-19T08:19:37;29.45;;;13.15;;
42866;SDS011;39461;40.948;73.006;2023-09-19T08:22:14;35.92;;;13.23;;
42866;SDS011;39461;40.948;73.006;2023-09-19T08:24:44;35.67;;;14.38;;
42866;SDS011;39461;40.948;73.006;2023-09-19T08:27:22;26.05;;;12.70;;
42866;SDS011;39461;40.948;73.006;2023-09-19T08:30:01;36.60;;;13.75;;
42866;SDS011;39461;40.948;73.006;2023-09-19T08:32:35;29.33;;;13.55;;
42866;SDS011;39461;40.948;73.006;2023-09-19T08:35:12;34.03;;;14.10;;
42866;SDS011;39461;40.948;73.006;2023-09-19T08:37:47;40.35;;;13.32;;
42866;SDS011;39461;40.948;73.006;2023-09-19T08:40:21;31.40;;;13.68;;
42866;SDS011;39461;40.948;73.006;2023-09-19T08:42:55;38.97;;;13.10;;
42866;SDS011;39461;40.948;73.006;2023-09-19T08:45:30;38.72;;;15.82;;
42866;SDS011;39461;40.948;73.006;2023-09-19T08:48:27;37.88;;;14.25;;
42866;SDS011;39461;40.948;73.006;2023-09-19T08:51:00;28.13;;;13.75;;
42866;SDS011;39461;40.948;73.006;2023-09-19T08:53:41;29.88;;;13.23;;
42866;SDS011;39461;40.948;73.006;2023-09-19T08:56:18;51.25;;;19.88;;
42866;SDS011;39461;40.948;73.006;2023-09-19T08:58:55;36.45;;;14.57;;
42866;SDS011;39461;40.948;73.006;2023-09-19T09:01:34;33.13;;;13.90;;
42866;SDS011;39461;40.948;73.006;2023-09-19T09:04:10;32.90;;;14.32;;
42866;SDS011;39461;40.948;73.006;2023-09-19T09:06:45;39.15;;;14.43;;
42866;SDS011;39461;40.948;73.006;2023-09-19T09:09:25;35.65;;;13.90;;
42866;SDS011;39461;40.948;73.006;2023-09-19T09:12:00;38.45;;;14.85;;
42866;SDS011;39461;40.948;73.006;2023-09-19T09:14:36;34.25;;;13.93;;
42866;SDS011;39461;40.948;73.006;2023-09-19T09:17:13;31.50;;;15.13;;
42866;SDS011;39461;40.948;73.006;2023-09-19T09:19:53;39.97;;;13.98;;
42866;SDS011;39461;40.948;73.006;2023-09-19T09:28:20;33.85;;;14.30;;
42866;SDS011;39461;40.948;73.006;2023-09-19T09:30:55;31.08;;;13.73;;
42866;SDS011;39461;40.948;73.006;2023-09-19T09:33:29;32.95;;;12.85;;
42866;SDS011;39461;40.948;73.006;2023-09-19T09:36:04;37.28;;;13.55;;
42866;SDS011;39461;40.948;73.006;2023-09-19T09:38:45;28.60;;;11.55;;
42866;SDS011;39461;40.948;73.006;2023-09-19T09:44:22;33.15;;;13.13;;
42866;SDS011;39461;40.948;73.006;2023-09-19T09:46:57;30.40;;;12.75;;
42866;SDS011;39461;40.948;73.006;2023-09-19T09:49:51;36.53;;;17.30;;
42866;SDS011;39461;40.948;73.006;2023-09-19T09:52:49;41.78;;;13.88;;
42866;SDS011;39461;40.948;73.006;2023-09-19T09:55:22;34.70;;;15.52;;
42866;SDS011;39461;40.948;73.006;2023-09-19T09:58:15;33.28;;;12.57;;
42866;SDS011;39461;40.948;73.006;2023-09-19T10:00:52;31.17;;;12.05;;
42866;SDS011;39461;40.948;73.006;2023-09-19T10:03:30;38.15;;;12.75;;
42866;SDS011;39461;40.948;73.006;2023-09-19T10:06:08;34.38;;;11.93;;
42866;SDS011;39461;40.948;73.006;2023-09-19T10:08:58;33.97;;;12.15;;
42866;SDS011;39461;40.948;73.006;2023-09-19T10:11:46;39.72;;;15.80;;
42866;SDS011;39461;40.948;73.006;2023-09-19T10:14:34;36.22;;;13.27;;
42866;SDS011;39461;40.948;73.006;2023-09-19T10:17:10;33.65;;;12.55;;
42866;SDS011;39461;40.948;73.006;2023-09-19T10:19:56;34.30;;;13.43;;
42866;SDS011;39461;40.948;73.006;2023-09-19T10:22:27;33.03;;;14.15;;
42866;SDS011;39461;40.948;73.006;2023-09-19T10:25:05;27.90;;;13.13;;
42866;SDS011;39461;40.948;73.006;2023-09-19T10:27:44;36.97;;;14.18;;
42866;SDS011;39461;40.948;73.006;2023-09-19T10:30:19;35.72;;;13.00;;
42866;SDS011;39461;40.948;73.006;2023-09-19T10:33:03;25.35;;;11.82;;
42866;SDS011;39461;40.948;73.006;2023-09-19T10:35:42;26.17;;;11.88;;
42866;SDS011;39461;40.948;73.006;2023-09-19T10:38:19;38.03;;;12.60;;
42866;SDS011;39461;40.948;73.006;2023-09-19T10:40:57;29.05;;;12.20;;
42866;SDS011;39461;40.948;73.006;2023-09-19T10:43:32;34.72;;;12.60;;
42866;SDS011;39461;40.948;73.006;2023-09-19T10:46:06;35.90;;;12.60;;
42866;SDS011;39461;40.948;73.006;2023-09-19T10:48:46;30.65;;;11.70;;
42866;SDS011;39461;40.948;73.006;2023-09-19T10:51:22;31.25;;;11.48;;
42866;SDS011;39461;40.948;73.006;2023-09-19T10:53:55;34.55;;;11.60;;
42866;SDS011;39461;40.948;73.006;2023-09-19T10:56:37;28.33;;;11.60;;
42866;SDS011;39461;40.948;73.006;2023-09-19T10:59:16;26.55;;;11.23;;
42866;SDS011;39461;40.948;73.006;2023-09-19T11:01:53;26.17;;;12.13;;
42866;SDS011;39461;40.948;73.006;2023-09-19T11:04:34;39.08;;;12.75;;
42866;SDS011;39461;40.948;73.006;2023-09-19T11:07:10;96.22;;;76.38;;
42866;SDS011;39461;40.948;73.006;2023-09-19T11:09:44;81.13;;;50.08;;
42866;SDS011;39461;40.948;73.006;2023-09-19T11:15:03;28.60;;;11.95;;
42866;SDS011;39461;40.948;73.006;2023-09-19T11:21:33;26.10;;;10.80;;
42866;SDS011;39461;40.948;73.006;2023-09-19T11:27:14;29.80;;;11.90;;
42866;SDS011;39461;40.948;73.006;2023-09-19T11:29:51;24.70;;;11.50;;
42866;SDS011;39461;40.948;73.006;2023-09-19T11:49:28;36.95;;;14.70;;
42866;SDS011;39461;40.948;73.006;2023-09-19T11:51:57;26.92;;;10.75;;
42866;SDS011;39461;40.948;73.006;2023-09-19T11:54:40;42.45;;;11.18;;
42866;SDS011;39461;40.948;73.006;2023-09-19T11:57:19;34.38;;;11.25;;
42866;SDS011;39461;40.948;73.006;2023-09-19T11:59:59;29.83;;;11.30;;
42866;SDS011;39461;40.948;73.006;2023-09-19T12:02:42;28.20;;;11.30;;
42866;SDS011;39461;40.948;73.006;2023-09-19T12:05:28;30.58;;;11.18;;
42866;SDS011;39461;40.948;73.006;2023-09-19T12:08:07;40.75;;;12.40;;
42866;SDS011;39461;40.948;73.006;2023-09-19T12:10:48;33.28;;;13.02;;
42866;SDS011;39461;40.948;73.006;2023-09-19T12:13:18;32.10;;;11.15;;
42866;SDS011;39461;40.948;73.006;2023-09-19T12:15:54;40.45;;;15.77;;
42866;SDS011;39461;40.948;73.006;2023-09-19T12:18:32;36.05;;;15.18;;
42866;SDS011;39461;40.948;73.006;2023-09-19T12:24:14;35.35;;;13.13;;
42866;SDS011;39461;40.948;73.006;2023-09-19T12:26:53;37.70;;;12.82;;
42866;SDS011;39461;40.948;73.006;2023-09-19T12:29:28;34.38;;;10.73;;
42866;SDS011;39461;40.948;73.006;2023-09-19T12:32:01;31.20;;;11.00;;
42866;SDS011;39461;40.948;73.006;2023-09-19T12:34:36;21.73;;;10.15;;
42866;SDS011;39461;40.948;73.006;2023-09-19T12:37:14;31.85;;;11.18;;
42866;SDS011;39461;40.948;73.006;2023-09-19T12:45:55;27.98;;;10.77;;
42866;SDS011;39461;40.948;73.006;2023-09-19T12:48:28;35.83;;;11.63;;
42866;SDS011;39461;40.948;73.006;2023-09-19T12:51:06;31.98;;;11.80;;
42866;SDS011;39461;40.948;73.006;2023-09-19T12:53:44;33.85;;;11.52;;
42866;SDS011;39461;40.948;73.006;2023-09-19T12:56:21;37.75;;;12.13;;
42866;SDS011;39461;40.948;73.006;2023-09-19T12:58:57;52.22;;;13.77;;
42866;SDS011;39461;40.948;73.006;2023-09-19T13:01:33;39.25;;;12.52;;
42866;SDS011;39461;40.948;73.006;2023-09-19T13:04:16;37.15;;;13.48;;
42866;SDS011;39461;40.948;73.006;2023-09-19T13:06:52;43.95;;;11.93;;
42866;SDS011;39461;40.948;73.006;2023-09-19T13:09:21;66.88;;;13.05;;
42866;SDS011;39461;40.948;73.006;2023-09-19T13:15:10;73.07;;;16.58;;
42866;SDS011;39461;40.948;73.006;2023-09-19T13:17:45;83.38;;;19.80;;
42866;SDS011;39461;40.948;73.006;2023-09-19T13:20:21;105.55;;;23.13;;
42866;SDS011;39461;40.948;73.006;2023-09-19T13:23:00;79.45;;;19.98;;
42866;SDS011;39461;40.948;73.006;2023-09-19T13:25:42;82.70;;;21.55;;
42866;SDS011;39461;40.948;73.006;2023-09-19T13:28:16;91.80;;;21.63;;
42866;SDS011;39461;40.948;73.006;2023-09-19T13:30:51;145.30;;;24.48;;
42866;SDS011;39461;40.948;73.006;2023-09-19T13:33:31;136.68;;;24.02;;
42866;SDS011;39461;40.948;73.006;2023-09-19T13:36:06;126.63;;;25.33;;
42866;SDS011;39461;40.948;73.006;2023-09-19T13:41:46;133.10;;;27.35;;
42866;SDS011;39461;40.948;73.006;2023-09-19T13:44:22;125.80;;;28.02;;
42866;SDS011;39461;40.948;73.006;2023-09-19T13:46:57;131.93;;;29.98;;
42866;SDS011;39461;40.948;73.006;2023-09-19T13:49:30;137.00;;;29.95;;
42866;SDS011;39461;40.948;73.006;2023-09-19T13:52:05;160.93;;;32.15;;
42866;SDS011;39461;40.948;73.006;2023-09-19T13:54:41;150.13;;;32.63;;
42866;SDS011;39461;40.948;73.006;2023-09-19T13:57:11;163.50;;;34.38;;
42866;SDS011;39461;40.948;73.006;2023-09-19T13:59:44;192.40;;;36.50;;
42866;SDS011;39461;40.948;73.006;2023-09-19T14:02:17;200.43;;;38.83;;
42866;SDS011;39461;40.948;73.006;2023-09-19T14:04:52;213.02;;;37.70;;
42866;SDS011;39461;40.948;73.006;2023-09-19T14:07:27;263.05;;;39.88;;
42866;SDS011;39461;40.948;73.006;2023-09-19T14:09:56;339.58;;;46.90;;
42866;SDS011;39461;40.948;73.006;2023-09-19T14:12:33;349.48;;;53.35;;
42866;SDS011;39461;40.948;73.006;2023-09-19T14:15:02;525.17;;;67.43;;
42866;SDS011;39461;40.948;73.006;2023-09-19T14:17:35;351.13;;;61.30;;
42866;SDS011;39461;40.948;73.006;2023-09-19T14:20:08;432.60;;;79.53;;
42866;SDS011;39461;40.948;73.006;2023-09-19T14:22:42;375.33;;;87.85;;
42866;SDS011;39461;40.948;73.006;2023-09-19T14:25:21;268.73;;;70.50;;
42866;SDS011;39461;40.948;73.006;2023-09-19T14:27:52;279.35;;;66.53;;
42866;SDS011;39461;40.948;73.006;2023-09-19T14:30:29;243.13;;;71.68;;
42866;SDS011;39461;40.948;73.006;2023-09-19T14:33:05;266.58;;;60.63;;
42866;SDS011;39461;40.948;73.006;2023-09-19T14:35:41;198.18;;;49.17;;
42866;SDS011;39461;40.948;73.006;2023-09-19T14:38:16;172.52;;;45.33;;
42866;SDS011;39461;40.948;73.006;2023-09-19T14:40:58;224.75;;;45.03;;
42866;SDS011;39461;40.948;73.006;2023-09-19T14:43:34;224.13;;;42.90;;
42866;SDS011;39461;40.948;73.006;2023-09-19T14:46:09;221.55;;;44.90;;
42866;SDS011;39461;40.948;73.006;2023-09-19T14:48:42;189.45;;;39.53;;
42866;SDS011;39461;40.948;73.006;2023-09-19T14:51:15;172.63;;;37.30;;
42866;SDS011;39461;40.948;73.006;2023-09-19T14:53:49;132.85;;;31.50;;
42866;SDS011;39461;40.948;73.006;2023-09-19T14:56:25;148.68;;;31.58;;
42866;SDS011;39461;40.948;73.006;2023-09-19T14:59:00;178.93;;;35.90;;
42866;SDS011;39461;40.948;73.006;2023-09-19T15:01:36;167.85;;;36.88;;
42866;SDS011;39461;40.948;73.006;2023-09-19T15:04:10;192.35;;;43.67;;
42866;SDS011;39461;40.948;73.006;2023-09-19T15:06:44;136.68;;;37.85;;
42866;SDS011;39461;40.948;73.006;2023-09-19T15:09:12;126.43;;;33.60;;
42866;SDS011;39461;40.948;73.006;2023-09-19T15:11:45;138.93;;;35.47;;
42866;SDS011;39461;40.948;73.006;2023-09-19T15:14:19;123.32;;;32.20;;
42866;SDS011;39461;40.948;73.006;2023-09-19T15:16:52;132.68;;;33.78;;
42866;SDS011;39461;40.948;73.006;2023-09-19T15:19:25;111.47;;;28.25;;
42866;SDS011;39461;40.948;73.006;2023-09-19T15:21:58;110.78;;;27.40;;
42866;SDS011;39461;40.948;73.006;2023-09-19T15:24:32;109.03;;;26.58;;
42866;SDS011;39461;40.948;73.006;2023-09-19T15:27:05;103.15;;;27.63;;
42866;SDS011;39461;40.948;73.006;2023-09-19T15:29:44;87.80;;;26.13;;
42866;SDS011;39461;40.948;73.006;2023-09-19T15:32:19;76.32;;;25.33;;
42866;SDS011;39461;40.948;73.006;2023-09-19T15:34:54;93.82;;;26.35;;
42866;SDS011;39461;40.948;73.006;2023-09-19T15:37:30;112.88;;;26.20;;
42866;SDS011;39461;40.948;73.006;2023-09-19T15:40:03;60.97;;;21.23;;
42866;SDS011;39461;40.948;73.006;2023-09-19T15:42:34;70.90;;;20.67;;
42866;SDS011;39461;40.948;73.006;2023-09-19T15:45:09;61.78;;;19.35;;
42866;SDS011;39461;40.948;73.006;2023-09-19T15:47:45;66.80;;;18.40;;
42866;SDS011;39461;40.948;73.006;2023-09-19T15:50:14;60.85;;;17.83;;
42866;SDS011;39461;40.948;73.006;2023-09-19T15:52:52;74.88;;;19.33;;
42866;SDS011;39461;40.948;73.006;2023-09-19T15:55:28;57.45;;;17.58;;
42866;SDS011;39461;40.948;73.006;2023-09-19T15:58:02;63.88;;;17.95;;
42866;SDS011;39461;40.948;73.006;2023-09-19T16:00:39;59.25;;;17.10;;
42866;SDS011;39461;40.948;73.006;2023-09-19T16:03:21;57.17;;;15.10;;
42866;SDS011;39461;40.948;73.006;2023-09-19T16:05:58;61.55;;;15.07;;
42866;SDS011;39461;40.948;73.006;2023-09-19T16:08:33;63.88;;;14.27;;
42866;SDS011;39461;40.948;73.006;2023-09-19T16:11:07;53.55;;;13.75;;